Time;durP1;ratioP1;P1;durP2;ratioP2;P2;SDS_P1;SDS_P2;PMS_P1;PMS_P2;Temp;Humidity;BMP_temperature;BMP_pressure;BME280_temperature;BME280_humidity;BME280_pressure;Samples;Min_cycle;Max_cycle;Signal;HPM_P1;HPM_P2
2023/03/11 00:01:44;;;;;;;17.05;8.38;;;12.50;97.20;;;;;;6186725;23;20044;-71
2023/03/11 00:04:09;;;;;;;17.42;9.70;;;12.50;97.30;;;;;;6186852;23;20009;-66
2023/03/11 00:06:35;;;;;;;13.23;8.98;;;12.50;97.20;;;;;;6185683;23;20037;-68
2023/03/11 00:09:02;;;;;;;16.05;9.15;;;12.40;97.20;;;;;;6186074;23;20004;-68
2023/03/11 00:11:28;;;;;;;14.25;9.35;;;12.40;97.10;;;;;;6186445;23;20009;-67
2023/03/11 00:13:53;;;;;;;14.00;8.65;;;12.40;97.10;;;;;;6186232;23;20442;-67
2023/03/11 00:16:19;;;;;;;15.63;8.75;;;12.30;97.10;;;;;;6185985;23;20157;-67
2023/03/11 00:18:48;;;;;;;17.00;9.32;;;12.30;97.20;;;;;;6186010;23;20087;-67
2023/03/11 00:21:16;;;;;;;14.25;7.93;;;12.30;97.10;;;;;;6185746;23;20068;-66
2023/03/11 00:23:42;;;;;;;23.25;9.13;;;12.20;97.20;;;;;;6186063;23;20075;-66
2023/03/11 00:26:08;;;;;;;15.00;8.52;;;12.20;97.30;;;;;;6186001;23;20028;-67
2023/03/11 00:28:33;;;;;;;12.43;9.02;;;12.10;97.30;;;;;;6185744;23;20001;-69
2023/03/11 00:30:59;;;;;;;14.80;8.50;;;12.10;97.30;;;;;;6186014;23;20077;-71
2023/03/11 00:33:25;;;;;;;13.93;8.35;;;12.20;97.20;;;;;;6186137;23;20028;-68
2023/03/11 00:35:51;;;;;;;15.35;8.57;;;12.10;97.10;;;;;;6186122;23;20055;-69
2023/03/11 00:38:17;;;;;;;15.75;8.95;;;12.10;97.10;;;;;;6185781;23;20013;-70
2023/03/11 00:40:45;;;;;;;17.10;8.48;;;12.10;97.10;;;;;;6185767;23;20001;-69
2023/03/11 00:43:11;;;;;;;14.15;8.60;;;12.00;97.10;;;;;;6185889;23;20080;-67
2023/03/11 00:45:37;;;;;;;13.70;8.35;;;12.00;97.00;;;;;;6185362;23;20008;-67
2023/03/11 00:48:03;;;;;;;16.35;9.13;;;11.90;97.10;;;;;;6185666;23;20012;-68
2023/03/11 00:50:32;;;;;;;16.65;8.63;;;11.90;97.10;;;;;;6185767;23;20031;-70
2023/03/11 00:52:58;;;;;;;19.95;8.32;;;11.90;97.20;;;;;;6186011;23;20008;-67
2023/03/11 00:55:27;;;;;;;13.77;8.38;;;11.90;97.20;;;;;;6185962;23;20000;-66
2023/03/11 00:58:02;;;;;;;14.30;8.27;;;11.90;97.30;;;;;;6186076;23;20017;-66
2023/03/11 01:00:29;;;;;;;19.05;8.30;;;11.80;97.20;;;;;;6185703;23;20124;-67
2023/03/11 01:02:55;;;;;;;15.32;8.82;;;11.80;97.20;;;;;;6185351;23;20454;-67
2023/03/11 01:05:26;;;;;;;15.93;8.90;;;11.80;97.30;;;;;;6185252;23;19997;-67
2023/03/11 01:07:51;;;;;;;13.60;8.18;;;11.70;97.20;;;;;;6185302;23;20071;-66
2023/03/11 01:10:17;;;;;;;15.45;8.10;;;11.70;97.50;;;;;;6183964;23;20039;-66
2023/03/11 01:12:43;;;;;;;11.13;7.13;;;11.70;97.30;;;;;;6159075;23;20005;-67
2023/03/11 01:15:16;;;;;;;16.30;8.90;;;11.70;97.40;;;;;;6185936;23;20006;-67
2023/03/11 01:17:42;;;;;;;13.00;7.57;;;11.70;97.50;;;;;;6185523;23;20013;-67
2023/03/11 01:20:09;;;;;;;18.95;8.10;;;11.70;97.30;;;;;;6185504;23;19997;-67
2023/03/11 01:22:35;;;;;;;16.10;7.75;;;11.60;97.40;;;;;;6185779;23;20016;-67
2023/03/11 01:25:01;;;;;;;13.07;8.13;;;11.70;97.40;;;;;;6185130;23;20005;-67
2023/03/11 01:27:27;;;;;;;11.88;7.20;;;11.70;97.50;;;;;;6185438;23;20001;-66
2023/03/11 01:29:53;;;;;;;17.70;8.90;;;11.70;97.40;;;;;;6185391;23;20005;-67
2023/03/11 01:32:19;;;;;;;14.38;7.10;;;11.60;97.40;;;;;;6185371;23;20362;-66
2023/03/11 01:34:44;;;;;;;23.17;8.30;;;11.60;97.50;;;;;;6185375;23;20009;-66
2023/03/11 01:37:10;;;;;;;14.48;7.78;;;11.60;97.50;;;;;;6185255;23;20422;-67
2023/03/11 01:39:36;;;;;;;15.80;7.68;;;11.60;97.50;;;;;;6185377;23;20000;-66
2023/03/11 01:42:01;;;;;;;12.00;7.65;;;11.50;97.50;;;;;;6185383;23;20001;-72
2023/03/11 01:44:27;;;;;;;13.32;7.13;;;11.50;97.50;;;;;;6185406;23;20024;-73
2023/03/11 01:46:53;;;;;;;14.75;8.48;;;11.50;97.40;;;;;;6184945;23;20052;-73
2023/03/11 01:49:20;;;;;;;14.40;8.23;;;11.50;97.40;;;;;;6185286;23;20031;-73
2023/03/11 01:51:50;;;;;;;17.17;8.07;;;11.50;97.50;;;;;;6184903;23;19997;-73
2023/03/11 01:54:20;;;;;;;17.70;7.78;;;11.50;97.50;;;;;;6184803;23;20004;-72
2023/03/11 01:56:48;;;;;;;13.10;6.55;;;11.40;97.30;;;;;;6184594;23;20016;-72
2023/03/11 01:59:18;;;;;;;13.38;7.57;;;11.40;97.40;;;;;;6155022;23;20020;-70
2023/03/11 02:02:05;;;;;;;14.85;7.70;;;11.40;97.40;;;;;;6181868;23;20063;-72
2023/03/11 02:04:33;;;;;;;15.80;7.70;;;11.30;97.30;;;;;;6182825;23;20012;-73
2023/03/11 02:07:00;;;;;;;15.10;7.60;;;11.30;97.30;;;;;;6184764;23;20012;-73
2023/03/11 02:09:26;;;;;;;10.85;7.03;;;11.40;97.50;;;;;;6184830;23;20008;-73
2023/03/11 02:11:52;;;;;;;13.13;8.02;;;11.30;97.50;;;;;;6184983;23;20001;-72
2023/03/11 02:14:19;;;;;;;12.70;7.78;;;11.30;97.50;;;;;;6184505;23;19997;-74
2023/03/11 02:16:45;;;;;;;13.10;7.28;;;11.30;97.60;;;;;;6184429;23;20084;-72
2023/03/11 02:19:33;;;;;;;16.63;7.35;;;11.30;97.50;;;;;;6184928;23;20079;-70
2023/03/11 02:22:00;;;;;;;15.48;7.85;;;11.30;97.80;;;;;;6127185;23;20005;-73
2023/03/11 02:24:39;;;;;;;15.85;8.18;;;11.30;97.60;;;;;;6185066;23;20428;-72
2023/03/11 02:27:09;;;;;;;16.77;7.13;;;11.20;97.60;;;;;;6184924;23;20002;-71
2023/03/11 02:29:36;;;;;;;13.70;7.35;;;11.20;97.70;;;;;;6184873;23;20009;-72
2023/03/11 02:32:06;;;;;;;11.63;7.43;;;11.30;97.70;;;;;;6184964;23;20401;-73
2023/03/11 02:34:35;;;;;;;15.95;8.30;;;11.20;97.70;;;;;;6158688;23;20029;-71
2023/03/11 02:37:07;;;;;;;11.93;7.78;;;11.20;97.70;;;;;;6184711;23;20080;-68
2023/03/11 02:39:44;;;;;;;11.45;6.65;;;11.20;97.70;;;;;;6184840;23;20428;-67
2023/03/11 02:42:23;;;;;;;12.70;6.53;;;11.20;97.80;;;;;;6185027;23;20012;-68
2023/03/11 02:45:11;;;;;;;12.77;7.57;;;11.20;97.70;;;;;;6185081;23;20088;-68
2023/03/11 02:47:38;;;;;;;17.23;7.43;;;11.20;97.80;;;;;;6184743;23;20015;-70
2023/03/11 02:50:06;;;;;;;14.02;6.20;;;11.20;97.90;;;;;;6184948;23;20033;-73
2023/03/11 02:52:34;;;;;;;14.13;7.30;;;11.10;97.90;;;;;;6184665;23;19998;-71
2023/03/11 02:55:00;;;;;;;14.63;6.28;;;11.10;97.90;;;;;;6185040;23;20028;-71
2023/03/11 02:57:26;;;;;;;17.00;7.15;;;11.10;97.70;;;;;;6158154;23;20378;-73
2023/03/11 02:59:52;;;;;;;11.43;6.47;;;11.10;97.70;;;;;;6185137;23;20054;-72
2023/03/11 03:02:17;;;;;;;17.48;6.50;;;11.10;97.80;;;;;;6184961;23;20012;-73
2023/03/11 03:04:43;;;;;;;16.10;7.03;;;11.10;97.90;;;;;;6184890;23;20060;-74
2023/03/11 03:07:09;;;;;;;11.27;6.40;;;11.00;97.80;;;;;;6184739;23;20071;-68
2023/03/11 03:09:35;;;;;;;13.45;6.47;;;11.00;97.80;;;;;;6184963;23;20427;-67
2023/03/11 03:12:01;;;;;;;14.40;6.80;;;11.00;97.80;;;;;;6186170;23;20005;-68
2023/03/11 03:14:27;;;;;;;16.00;7.10;;;11.00;97.80;;;;;;6186651;23;20001;-67
2023/03/11 03:16:53;;;;;;;14.85;6.47;;;11.00;97.90;;;;;;6186415;23;20001;-67
2023/03/11 03:19:19;;;;;;;12.50;6.00;;;11.00;97.60;;;;;;6186558;23;20031;-67
2023/03/11 03:21:45;;;;;;;18.52;6.72;;;11.00;97.60;;;;;;6186460;23;20024;-67
2023/03/11 03:24:11;;;;;;;12.48;6.18;;;10.90;97.60;;;;;;6186364;23;20005;-67
2023/03/11 03:26:37;;;;;;;14.75;6.18;;;10.90;97.60;;;;;;6186310;23;20002;-67
2023/03/11 03:29:04;;;;;;;13.23;6.32;;;10.90;97.50;;;;;;6186619;23;21078;-67
2023/03/11 03:31:30;;;;;;;10.50;6.45;;;10.90;97.60;;;;;;6186643;23;20467;-67
2023/03/11 03:33:56;;;;;;;16.00;6.90;;;10.80;97.50;;;;;;6186430;23;20008;-67
2023/03/11 03:36:22;;;;;;;15.18;6.82;;;10.80;97.40;;;;;;6186463;23;19997;-68
2023/03/11 03:38:51;;;;;;;13.75;6.20;;;10.80;97.50;;;;;;6186167;23;20020;-67
2023/03/11 03:41:17;;;;;;;17.42;7.20;;;10.80;97.50;;;;;;6160026;23;20005;-68
2023/03/11 03:43:43;;;;;;;12.10;6.38;;;10.80;97.60;;;;;;6186483;23;20056;-67
2023/03/11 03:46:09;;;;;;;12.48;5.80;;;10.80;97.60;;;;;;6186248;23;20013;-67
2023/03/11 03:48:35;;;;;;;17.70;6.15;;;10.80;97.60;;;;;;6186279;23;20012;-67
2023/03/11 03:51:06;;;;;;;19.77;6.93;;;10.70;97.70;;;;;;6184938;23;20009;-67
2023/03/11 03:53:34;;;;;;;17.80;6.45;;;10.70;97.70;;;;;;6186906;23;20009;-68
2023/03/11 03:56:05;;;;;;;18.55;6.47;;;10.80;97.80;;;;;;6186478;23;20001;-67
2023/03/11 03:58:31;;;;;;;14.57;6.63;;;10.70;97.70;;;;;;6186073;23;20020;-67
2023/03/11 04:00:57;;;;;;;17.95;6.90;;;10.70;97.70;;;;;;6186474;23;20083;-67
2023/03/11 04:03:25;;;;;;;16.52;6.80;;;10.70;97.70;;;;;;6186331;23;20419;-67
2023/03/11 04:05:50;;;;;;;15.15;6.20;;;10.70;97.60;;;;;;6186239;23;20141;-67
2023/03/11 04:08:16;;;;;;;13.27;6.15;;;10.70;97.70;;;;;;6186571;23;20033;-67
2023/03/11 04:10:42;;;;;;;20.38;6.55;;;10.70;97.70;;;;;;6185974;23;20079;-67
2023/03/11 04:13:08;;;;;;;18.90;6.18;;;10.60;97.80;;;;;;6186200;23;19997;-67
2023/03/11 04:15:36;;;;;;;18.27;6.45;;;10.60;97.90;;;;;;6186129;23;20031;-67
2023/03/11 04:18:01;;;;;;;21.85;6.78;;;10.60;98.00;;;;;;6186028;23;20013;-67
2023/03/11 04:20:27;;;;;;;16.42;5.82;;;10.60;98.00;;;;;;6186341;23;20381;-67
2023/03/11 04:22:53;;;;;;;16.17;6.57;;;10.70;98.30;;;;;;6185601;23;20005;-67
2023/03/11 04:25:18;;;;;;;19.27;6.00;;;10.70;98.00;;;;;;6186284;23;20072;-67
2023/03/11 04:27:45;;;;;;;15.32;5.95;;;10.70;98.00;;;;;;6186172;23;20080;-68
2023/03/11 04:30:11;;;;;;;13.93;5.57;;;10.70;98.00;;;;;;6185889;23;20001;-67
2023/03/11 04:32:37;;;;;;;15.90;5.97;;;10.60;97.80;;;;;;6185600;23;20001;-67
2023/03/11 04:35:04;;;;;;;16.92;6.53;;;10.60;97.90;;;;;;6186130;23;20004;-67
2023/03/11 04:37:30;;;;;;;16.45;5.78;;;10.60;97.90;;;;;;6186000;23;20095;-67
2023/03/11 04:39:56;;;;;;;15.63;5.57;;;10.60;97.80;;;;;;6185988;23;20028;-67
2023/03/11 04:42:21;;;;;;;17.77;5.53;;;10.60;97.80;;;;;;6186273;23;20011;-67
2023/03/11 04:44:47;;;;;;;16.52;5.68;;;10.60;97.80;;;;;;6185802;23;20008;-68
2023/03/11 04:47:13;;;;;;;16.45;5.70;;;10.50;97.80;;;;;;6155221;23;20052;-68
2023/03/11 04:49:39;;;;;;;16.00;5.95;;;10.60;97.80;;;;;;6126856;23;20006;-67
2023/03/11 04:52:05;;;;;;;20.45;5.53;;;10.60;97.80;;;;;;6126681;23;20456;-67
2023/03/11 04:54:31;;;;;;;22.30;5.93;;;10.50;97.70;;;;;;6126607;23;20456;-67
2023/03/11 04:56:56;;;;;;;19.48;6.47;;;10.50;97.50;;;;;;6126453;23;20048;-67
2023/03/11 04:59:22;;;;;;;18.15;6.25;;;10.50;97.50;;;;;;6126300;23;20029;-68
2023/03/11 05:01:48;;;;;;;16.13;5.70;;;10.50;97.50;;;;;;6126460;23;20029;-68
2023/03/11 05:04:13;;;;;;;18.98;5.97;;;10.50;97.40;;;;;;6126229;23;20033;-67
2023/03/11 05:06:39;;;;;;;15.60;5.80;;;10.50;97.30;;;;;;6149658;23;20009;-72
2023/03/11 05:09:05;;;;;;;21.77;5.55;;;10.40;97.30;;;;;;6126512;23;20011;-68
2023/03/11 05:11:31;;;;;;;20.42;6.90;;;10.40;97.20;;;;;;6127170;23;20005;-66
2023/03/11 05:13:56;;;;;;;19.02;6.90;;;10.40;97.10;;;;;;6126593;23;20002;-71
2023/03/11 05:16:22;;;;;;;18.05;6.43;;;10.40;97.50;;;;;;6126192;23;20006;-74
2023/03/11 05:18:48;;;;;;;15.93;6.40;;;10.40;97.40;;;;;;6126025;23;20061;-71
2023/03/11 05:21:14;;;;;;;14.00;6.07;;;10.40;97.40;;;;;;6126459;23;20004;-73
2023/03/11 05:23:39;;;;;;;14.57;6.85;;;10.30;97.40;;;;;;6126299;23;20168;-73
2023/03/11 05:26:05;;;;;;;20.80;6.80;;;10.30;97.50;;;;;;6126291;23;20097;-71
2023/03/11 05:28:31;;;;;;;23.08;7.45;;;10.30;97.60;;;;;;6126233;23;19998;-71
2023/03/11 05:30:57;;;;;;;20.45;7.38;;;10.30;97.60;;;;;;6124990;23;20010;-73
2023/03/11 05:33:23;;;;;;;17.00;7.38;;;10.30;97.70;;;;;;6125955;23;20688;-71
2023/03/11 05:35:50;;;;;;;17.50;7.00;;;10.30;97.90;;;;;;6125534;23;20002;-68
2023/03/11 05:38:16;;;;;;;20.48;7.00;;;10.30;98.00;;;;;;6124017;23;20014;-70
2023/03/11 05:40:42;;;;;;;17.92;7.18;;;10.30;98.00;;;;;;6125238;23;19998;-74
2023/03/11 05:43:08;;;;;;;21.00;7.28;;;10.30;98.10;;;;;;6125254;23;20006;-71
2023/03/11 05:45:33;;;;;;;16.75;7.25;;;10.30;98.10;;;;;;6131754;23;20010;-71
2023/03/11 05:47:59;;;;;;;23.42;7.82;;;10.30;98.10;;;;;;6184335;23;20009;-71
2023/03/11 05:50:25;;;;;;;26.87;8.27;;;10.30;98.00;;;;;;6184321;23;20002;-72
2023/03/11 05:52:51;;;;;;;21.65;7.47;;;10.30;97.80;;;;;;6184748;23;20001;-72
2023/03/11 05:55:16;;;;;;;20.73;7.13;;;10.20;97.90;;;;;;6185164;23;20012;-72
2023/03/11 05:57:42;;;;;;;20.02;7.57;;;10.20;98.00;;;;;;6184743;23;20009;-71
2023/03/11 06:00:10;;;;;;;21.05;8.82;;;10.30;98.10;;;;;;6185025;23;19997;-72
2023/03/11 06:02:38;;;;;;;18.70;7.53;;;10.30;98.10;;;;;;6184913;23;20096;-71
2023/03/11 06:05:05;;;;;;;19.45;8.48;;;10.30;98.20;;;;;;6183896;23;20368;-70
2023/03/11 06:07:33;;;;;;;25.20;8.05;;;10.30;98.20;;;;;;6183383;23;20301;-71
2023/03/11 06:09:59;;;;;;;16.92;8.45;;;10.30;98.30;;;;;;6183311;23;19997;-71
2023/03/11 06:12:25;;;;;;;16.02;7.85;;;10.40;98.30;;;;;;6183030;23;20079;-70
2023/03/11 06:14:52;;;;;;;21.23;7.38;;;10.40;98.30;;;;;;6182459;23;20063;-72
2023/03/11 06:17:18;;;;;;;15.00;7.13;;;10.40;98.30;;;;;;6182950;23;20482;-72
2023/03/11 06:19:44;;;;;;;15.95;7.88;;;10.40;98.50;;;;;;6183112;23;20001;-72
2023/03/11 06:22:10;;;;;;;20.30;8.20;;;10.40;98.30;;;;;;6184329;23;20084;-72
2023/03/11 06:24:36;;;;;;;21.10;8.88;;;10.40;98.30;;;;;;6183679;23;20435;-73
2023/03/11 06:27:01;;;;;;;17.67;8.93;;;10.40;98.30;;;;;;6184033;23;20001;-71
2023/03/11 06:29:28;;;;;;;15.32;8.20;;;10.40;98.30;;;;;;6183923;23;20005;-72
2023/03/11 06:31:54;;;;;;;21.55;9.15;;;10.40;98.30;;;;;;6183512;23;20025;-67
2023/03/11 06:34:20;;;;;;;14.27;8.27;;;10.40;98.40;;;;;;6183893;23;20013;-68
2023/03/11 06:36:45;;;;;;;21.92;9.50;;;10.40;98.50;;;;;;6184153;23;20012;-68
2023/03/11 06:39:13;;;;;;;22.50;9.35;;;10.40;98.50;;;;;;6184117;23;20008;-67
2023/03/11 06:41:39;;;;;;;19.13;8.40;;;10.50;98.70;;;;;;6183711;23;20308;-67
2023/03/11 06:44:04;;;;;;;21.45;9.63;;;10.50;98.70;;;;;;6183785;23;20001;-67
2023/03/11 06:46:30;;;;;;;23.13;11.02;;;10.50;98.80;;;;;;6184784;23;20017;-68
2023/03/11 06:48:56;;;;;;;23.38;10.18;;;10.60;98.90;;;;;;6186389;23;20007;-67
2023/03/11 06:51:22;;;;;;;28.83;10.57;;;10.60;98.90;;;;;;6185069;23;20048;-68
2023/03/11 06:53:50;;;;;;;23.30;9.82;;;10.70;99.00;;;;;;6186628;23;20008;-67
2023/03/11 06:56:17;;;;;;;28.67;11.55;;;10.70;99.00;;;;;;6186504;23;20084;-68
2023/03/11 06:58:43;;;;;;;24.42;10.43;;;10.80;99.00;;;;;;6186574;23;20141;-67
2023/03/11 07:01:18;;;;;;;20.30;11.50;;;10.80;99.00;;;;;;6186691;23;20024;-69
2023/03/11 07:03:45;;;;;;;23.15;11.73;;;10.90;98.90;;;;;;6186516;23;20131;-67
2023/03/11 07:06:17;;;;;;;27.73;12.02;;;11.00;98.90;;;;;;6184465;23;20371;-69
2023/03/11 07:08:44;;;;;;;22.27;12.13;;;11.00;98.90;;;;;;6186346;23;20458;-68
2023/03/11 07:11:18;;;;;;;22.70;12.68;;;11.00;98.90;;;;;;6186931;23;20005;-67
2023/03/11 07:13:45;;;;;;;22.65;11.55;;;11.10;98.90;;;;;;6186759;23;20001;-68
2023/03/11 07:16:16;;;;;;;23.90;11.65;;;11.10;98.90;;;;;;6186001;23;20001;-67
2023/03/11 07:18:43;;;;;;;20.73;12.07;;;11.20;98.90;;;;;;6185543;23;20013;-68
2023/03/11 07:21:12;;;;;;;24.35;13.48;;;11.20;98.90;;;;;;6186339;23;20051;-67
2023/03/11 07:23:38;;;;;;;28.17;13.73;;;11.20;98.90;;;;;;6186306;23;20062;-67
2023/03/11 07:26:03;;;;;;;27.85;14.88;;;11.30;99.00;;;;;;6186674;23;20025;-67
2023/03/11 07:28:30;;;;;;;24.40;14.50;;;11.30;98.90;;;;;;6186701;23;20005;-67
2023/03/11 07:30:56;;;;;;;20.58;9.50;;;11.40;98.90;;;;;;6186904;23;20027;-68
2023/03/11 07:33:25;;;;;;;21.92;10.20;;;11.50;98.80;;;;;;6186477;23;20005;-67
2023/03/11 07:35:51;;;;;;;20.92;10.50;;;11.60;98.50;;;;;;6186499;23;20036;-67
2023/03/11 07:38:18;;;;;;;20.83;11.43;;;11.60;98.40;;;;;;6160038;23;20066;-68
2023/03/11 07:40:44;;;;;;;27.77;11.68;;;11.60;98.30;;;;;;6186741;23;20005;-68
2023/03/11 07:43:10;;;;;;;27.15;12.35;;;11.60;98.30;;;;;;6186365;23;20458;-69
2023/03/11 07:45:35;;;;;;;20.70;12.82;;;11.70;98.40;;;;;;6186309;23;20044;-68
2023/03/11 07:48:02;;;;;;;30.17;13.10;;;11.70;98.50;;;;;;6186456;23;20005;-69
2023/03/11 07:50:28;;;;;;;23.45;13.00;;;11.80;98.50;;;;;;6186577;23;19998;-69
2023/03/11 07:52:54;;;;;;;23.90;14.05;;;11.80;98.40;;;;;;6186683;23;20076;-69
2023/03/11 07:55:19;;;;;;;28.17;12.88;;;11.90;98.30;;;;;;6186413;23;20088;-69
2023/03/11 07:57:50;;;;;;;33.80;14.95;;;12.00;98.20;;;;;;6185827;23;20009;-68
2023/03/11 08:00:16;;;;;;;25.58;13.65;;;12.10;98.00;;;;;;6186397;23;20001;-68
2023/03/11 08:02:42;;;;;;;21.13;13.38;;;12.10;97.80;;;;;;6186234;23;20001;-68
2023/03/11 08:05:08;;;;;;;29.88;13.88;;;12.10;97.90;;;;;;6186355;23;20007;-68
2023/03/11 08:07:34;;;;;;;27.58;13.05;;;12.20;97.30;;;;;;6186265;23;20076;-68
2023/03/11 08:10:00;;;;;;;23.42;11.98;;;12.30;97.10;;;;;;6186157;23;20028;-69
2023/03/11 08:12:25;;;;;;;23.10;12.40;;;12.40;96.90;;;;;;6186136;23;20054;-69
2023/03/11 08:14:51;;;;;;;23.02;12.32;;;12.40;96.80;;;;;;6186358;23;20005;-68
2023/03/11 08:17:17;;;;;;;35.10;13.93;;;12.50;96.70;;;;;;6186110;23;20041;-68
2023/03/11 08:19:43;;;;;;;29.60;15.52;;;12.50;96.60;;;;;;6186643;23;20011;-68
2023/03/11 08:22:08;;;;;;;29.63;14.90;;;12.60;96.50;;;;;;6186135;23;20011;-68
2023/03/11 08:24:34;;;;;;;31.65;16.35;;;12.60;96.50;;;;;;6186041;23;19997;-68
2023/03/11 08:27:00;;;;;;;19.92;12.40;;;12.60;96.50;;;;;;6186001;23;20012;-69
2023/03/11 08:29:26;;;;;;;29.02;13.95;;;12.60;96.60;;;;;;6186091;23;20009;-68
2023/03/11 08:31:52;;;;;;;26.40;13.48;;;12.70;96.70;;;;;;6159900;23;20056;-72
2023/03/11 08:34:19;;;;;;;25.80;12.60;;;12.80;96.70;;;;;;6185946;23;20009;-75
2023/03/11 08:36:45;;;;;;;23.15;12.43;;;12.80;96.70;;;;;;6184191;23;20380;-75
2023/03/11 08:39:11;;;;;;;29.38;13.43;;;12.90;96.50;;;;;;6185822;23;20044;-74
2023/03/11 08:41:37;;;;;;;28.13;13.38;;;13.00;96.20;;;;;;6185785;23;19997;-74
2023/03/11 08:44:02;;;;;;;26.83;13.93;;;13.10;96.00;;;;;;6185760;23;20001;-73
2023/03/11 08:46:34;;;;;;;24.15;13.70;;;13.10;95.60;;;;;;6185884;23;20045;-73
2023/03/11 08:49:00;;;;;;;34.65;13.77;;;13.20;95.30;;;;;;6186290;23;20084;-72
2023/03/11 08:51:27;;;;;;;23.08;13.18;;;13.30;94.90;;;;;;6185787;23;20059;-75
2023/03/11 08:53:53;;;;;;;23.50;13.10;;;13.40;94.40;;;;;;6186086;23;20004;-74
2023/03/11 08:56:19;;;;;;;24.85;12.40;;;13.50;94.20;;;;;;6185769;23;20072;-75
2023/03/11 08:58:46;;;;;;;28.17;12.82;;;13.60;94.00;;;;;;6185805;23;20009;-74
2023/03/11 09:01:12;;;;;;;30.67;13.05;;;13.70;93.60;;;;;;6185891;23;20025;-73
2023/03/11 09:03:38;;;;;;;21.80;12.23;;;13.80;93.20;;;;;;6185721;23;20041;-73
2023/03/11 09:06:07;;;;;;;29.27;11.85;;;13.90;93.00;;;;;;6185879;23;20483;-74
2023/03/11 09:08:34;;;;;;;20.88;11.73;;;14.00;92.90;;;;;;6186505;23;20344;-69
2023/03/11 09:11:00;;;;;;;21.42;10.30;;;14.00;92.90;;;;;;6185732;23;20036;-69
2023/03/11 09:13:26;;;;;;;26.20;11.15;;;14.10;92.50;;;;;;6185482;23;20016;-69
2023/03/11 09:15:52;;;;;;;21.67;10.27;;;14.20;92.30;;;;;;6186035;23;20009;-70
2023/03/11 09:18:18;;;;;;;25.35;9.88;;;14.30;92.00;;;;;;6185562;23;20009;-69
2023/03/11 09:20:45;;;;;;;21.05;8.85;;;14.40;91.70;;;;;;6185555;23;20001;-70
2023/03/11 09:23:12;;;;;;;20.85;8.88;;;14.50;91.30;;;;;;6185293;23;20005;-69
2023/03/11 09:25:38;;;;;;;23.25;8.32;;;14.60;91.00;;;;;;6185543;23;20039;-70
2023/03/11 09:28:04;;;;;;;14.10;7.45;;;14.60;90.30;;;;;;6185414;23;20029;-69
2023/03/11 09:30:30;;;;;;;18.15;7.60;;;14.70;89.80;;;;;;6185145;23;20424;-69
2023/03/11 09:32:56;;;;;;;21.27;7.68;;;14.70;90.00;;;;;;6185656;23;20004;-68
2023/03/11 09:35:23;;;;;;;18.13;7.38;;;14.80;89.10;;;;;;6185699;23;20308;-70
2023/03/11 09:37:49;;;;;;;16.50;7.60;;;14.90;88.00;;;;;;6185181;23;20383;-69
2023/03/11 09:40:21;;;;;;;20.25;7.60;;;15.00;87.80;;;;;;6185332;23;20001;-70
2023/03/11 09:42:56;;;;;;;21.05;7.88;;;15.10;87.40;;;;;;6185557;23;19997;-69
2023/03/11 09:45:28;;;;;;;18.63;7.85;;;15.20;86.60;;;;;;6185057;23;20439;-71
2023/03/11 09:48:06;;;;;;;17.90;7.20;;;15.30;85.80;;;;;;6185131;23;20001;-75
2023/03/11 09:50:34;;;;;;;19.15;7.90;;;15.30;84.80;;;;;;6185198;23;20032;-73
2023/03/11 09:53:13;;;;;;;14.80;7.10;;;15.40;84.30;;;;;;6185189;23;19997;-74
2023/03/11 09:55:59;;;;;;;16.23;7.63;;;15.50;81.20;;;;;;6185327;23;20301;-74
2023/03/11 09:58:45;;;;;;;14.30;8.13;;;15.60;79.70;;;;;;6185223;23;20032;-73
2023/03/11 10:01:27;;;;;;;20.33;8.20;;;15.60;78.50;;;;;;6185124;23;20006;-69
2023/03/11 10:04:07;;;;;;;22.02;7.97;;;15.60;78.60;;;;;;6185376;23;20068;-70
2023/03/11 10:06:33;;;;;;;23.77;8.95;;;15.60;78.50;;;;;;6185289;23;20454;-70
2023/03/11 10:09:29;;;;;;;18.80;8.85;;;15.70;78.20;;;;;;6185455;23;20025;-69
2023/03/11 10:12:05;;;;;;;13.40;8.35;;;15.80;78.20;;;;;;6185080;23;20001;-68
2023/03/11 10:14:31;;;;;;;18.17;7.97;;;15.90;77.60;;;;;;6185127;23;20001;-69
2023/03/11 10:17:12;;;;;;;21.02;9.10;;;16.00;76.70;;;;;;6185165;23;20013;-69
2023/03/11 10:19:56;;;;;;;21.83;8.70;;;16.10;75.90;;;;;;6183628;23;20032;-69
2023/03/11 10:22:37;;;;;;;23.40;8.15;;;16.20;75.30;;;;;;6184990;23;19997;-70
2023/03/11 10:25:03;;;;;;;17.45;7.70;;;16.20;74.70;;;;;;6185170;23;20005;-68
2023/03/11 10:27:45;;;;;;;25.55;8.48;;;16.30;74.60;;;;;;6183658;23;20427;-68
2023/03/11 10:30:32;;;;;;;15.10;7.78;;;16.30;73.10;;;;;;6185293;23;20050;-68
2023/03/11 10:33:01;;;;;;;18.40;8.05;;;16.30;70.00;;;;;;6185118;23;20051;-68
2023/03/11 10:35:41;;;;;;;16.08;7.55;;;16.30;70.90;;;;;;6185027;23;20132;-69
2023/03/11 10:38:21;;;;;;;19.40;7.30;;;16.30;71.20;;;;;;6185134;23;20009;-69
2023/03/11 10:40:49;;;;;;;15.23;6.78;;;16.30;70.10;;;;;;6185114;23;20099;-70
2023/03/11 10:43:18;;;;;;;13.68;6.18;;;16.30;70.10;;;;;;6183477;23;20096;-69
2023/03/11 10:45:47;;;;;;;12.68;6.28;;;16.40;70.30;;;;;;6150036;23;20523;-69
2023/03/11 10:48:17;;;;;;;13.35;5.90;;;16.50;70.70;;;;;;6153155;23;20277;-69
2023/03/11 10:51:16;;;;;;;14.07;5.70;;;16.60;69.70;;;;;;6154980;23;20012;-69
2023/03/11 10:53:56;;;;;;;16.85;5.70;;;16.70;69.00;;;;;;6155215;23;20002;-68
2023/03/11 10:56:28;;;;;;;17.27;6.57;;;16.70;68.40;;;;;;6155438;23;20037;-70
2023/03/11 10:58:54;;;;;;;17.40;5.63;;;16.80;66.50;;;;;;6155096;23;20498;-68
2023/03/11 11:01:20;;;;;;;14.30;5.45;;;16.80;66.20;;;;;;6154992;23;20002;-68
2023/03/11 11:03:51;;;;;;;10.35;4.80;;;16.90;67.20;;;;;;6154843;23;20005;-69
2023/03/11 11:06:36;;;;;;;16.80;4.63;;;17.00;65.40;;;;;;6155509;23;20084;-69
2023/03/11 11:09:20;;;;;;;14.45;4.47;;;17.00;64.20;;;;;;6152647;23;20010;-68
2023/03/11 11:12:18;;;;;;;8.02;3.95;;;17.00;62.10;;;;;;6152126;23;20029;-68
2023/03/11 11:14:46;;;;;;;8.52;4.10;;;17.10;63.10;;;;;;6152743;23;20012;-69
2023/03/11 11:17:44;;;;;;;10.18;3.92;;;17.20;61.50;;;;;;6154700;23;20014;-70
2023/03/11 11:20:17;;;;;;;7.13;3.65;;;17.20;60.20;;;;;;6154880;23;20001;-71
2023/03/11 11:23:03;;;;;;;7.05;3.17;;;17.30;59.60;;;;;;6154904;23;20029;-69
2023/03/11 11:25:37;;;;;;;7.55;2.80;;;17.40;60.60;;;;;;6155197;23;20450;-68
2023/03/11 11:28:19;;;;;;;7.32;2.83;;;17.40;59.90;;;;;;6154895;23;20009;-69
2023/03/11 11:31:24;;;;;;;9.00;2.92;;;17.50;60.20;;;;;;6154713;23;20008;-69
2023/03/11 11:33:53;;;;;;;12.93;3.47;;;17.70;59.70;;;;;;6169826;23;20001;-68
2023/03/11 11:36:23;;;;;;;7.45;2.67;;;17.70;59.40;;;;;;6156912;23;20037;-69
2023/03/11 11:38:53;;;;;;;6.30;2.70;;;17.80;59.40;;;;;;6156347;23;20014;-68
2023/03/11 11:41:25;;;;;;;6.38;2.55;;;17.90;57.90;;;;;;6156271;23;20001;-69
2023/03/11 11:43:58;;;;;;;6.50;2.25;;;18.00;57.90;;;;;;6155746;23;20004;-68
2023/03/11 11:46:32;;;;;;;7.25;2.92;;;18.20;57.60;;;;;;6169902;23;20040;-68
2023/03/11 11:49:21;;;;;;;8.90;2.83;;;18.20;55.80;;;;;;6186095;23;20008;-69
2023/03/11 11:51:57;;;;;;;7.35;2.40;;;18.30;55.80;;;;;;6185934;23;20331;-69
2023/03/11 11:54:34;;;;;;;7.05;2.58;;;18.30;56.20;;;;;;6183040;23;20028;-68
2023/03/11 11:57:12;;;;;;;5.78;2.63;;;18.30;54.90;;;;;;6182292;23;20036;-68
2023/03/11 11:59:38;;;;;;;10.20;2.60;;;18.40;54.90;;;;;;6184387;23;20016;-69
2023/03/11 12:02:18;;;;;;;5.93;2.38;;;18.40;54.60;;;;;;6186828;23;20032;-74
2023/03/11 12:04:55;;;;;;;5.53;2.25;;;18.50;54.50;;;;;;6186377;23;20013;-74
2023/03/11 12:07:40;;;;;;;7.60;2.75;;;18.50;53.10;;;;;;6186261;23;20067;-71
2023/03/11 12:10:28;;;;;;;6.43;2.22;;;18.60;51.90;;;;;;6186756;23;20032;-70
2023/03/11 12:13:06;;;;;;;4.25;1.73;;;18.70;53.30;;;;;;6186671;23;20079;-69
2023/03/11 12:16:01;;;;;;;5.53;2.03;;;18.80;52.70;;;;;;6186512;23;20079;-76
2023/03/11 12:18:37;;;;;;;6.38;1.92;;;18.80;52.00;;;;;;6183358;23;20091;-70
2023/03/11 12:21:22;;;;;;;5.72;2.67;;;18.90;50.80;;;;;;6183099;23;20068;-69
2023/03/11 12:24:09;;;;;;;5.72;1.70;;;18.90;49.90;;;;;;6182859;23;20036;-69
2023/03/11 12:26:39;;;;;;;5.40;1.85;;;18.90;50.00;;;;;;6186418;23;20083;-69
2023/03/11 12:29:34;;;;;;;5.65;1.63;;;18.90;50.10;;;;;;6186152;23;20454;-69
2023/03/11 12:32:01;;;;;;;6.80;2.40;;;19.00;51.90;;;;;;6186185;23;20001;-73
2023/03/11 12:34:28;;;;;;;5.10;2.15;;;19.00;51.20;;;;;;6186266;23;19997;-70
2023/03/11 12:37:02;;;;;;;3.92;1.60;;;19.10;50.90;;;;;;6186017;23;20016;-71
2023/03/11 12:39:31;;;;;;;3.60;1.90;;;19.20;50.90;;;;;;6186032;23;20084;-73
2023/03/11 12:42:38;;;;;;;4.07;2.20;;;19.20;50.30;;;;;;6185888;23;20004;-69
2023/03/11 12:45:41;;;;;;;4.22;1.80;;;19.40;49.70;;;;;;6127425;23;20005;-68
2023/03/11 12:48:24;;;;;;;;;;;19.50;49.10;;;;;;6186393;23;20488;-70